sensor_id;sensor_type;location;lat;lon;timestamp;pressure;altitude;pressure_sealevel;temperature;humidity
46876;BME280;32866;50.160;14.768;2023-02-26T00:00:37;98549.94;;;-1.55;100.00
46876;BME280;32866;50.160;14.768;2023-02-26T00:03:02;98578.41;;;-1.43;100.00
46876;BME280;32866;50.160;14.768;2023-02-26T00:05:28;98542.22;;;-1.67;100.00
46876;BME280;32866;50.160;14.768;2023-02-26T00:07:53;98570.69;;;-1.55;100.00
46876;BME280;32866;50.160;14.768;2023-02-26T00:10:18;98583.00;;;-1.51;100.00
46876;BME280;32866;50.160;14.768;2023-02-26T00:12:44;98580.72;;;-1.41;100.00
46876;BME280;32866;50.160;14.768;2023-02-26T00:15:11;98585.38;;;-1.38;100.00
46876;BME280;32866;50.160;14.768;2023-02-26T00:20:10;98570.59;;;-1.70;100.00
46876;BME280;32866;50.160;14.768;2023-02-26T00:22:39;98593.75;;;-1.54;100.00
46876;BME280;32866;50.160;14.768;2023-02-26T00:25:05;98590.34;;;-1.44;100.00
46876;BME280;32866;50.160;14.768;2023-02-26T00:27:30;98589.88;;;-1.57;100.00
46876;BME280;32866;50.160;14.768;2023-02-26T00:29:56;98591.00;;;-1.58;100.00
46876;BME280;32866;50.160;14.768;2023-02-26T00:32:22;98593.75;;;-1.54;100.00
46876;BME280;32866;50.160;14.768;2023-02-26T00:34:47;98599.91;;;-1.46;100.00
46876;BME280;32866;50.160;14.768;2023-02-26T00:39:50;98602.22;;;-1.48;100.00
46876;BME280;32866;50.160;14.768;2023-02-26T00:42:19;98577.13;;;-1.74;100.00
46876;BME280;32866;50.160;14.768;2023-02-26T00:44:45;98602.13;;;-1.59;100.00
46876;BME280;32866;50.160;14.768;2023-02-26T00:50:12;98606.00;;;-1.57;100.00
46876;BME280;32866;50.160;14.768;2023-02-26T00:55:22;98592.91;;;-1.62;100.00
46876;BME280;32866;50.160;14.768;2023-02-26T00:57:47;98608.22;;;-1.66;100.00
46876;BME280;32866;50.160;14.768;2023-02-26T01:00:13;98616.72;;;-1.64;100.00
46876;BME280;32866;50.160;14.768;2023-02-26T01:02:40;98620.84;;;-1.77;100.00
46876;BME280;32866;50.160;14.768;2023-02-26T01:05:06;98617.41;;;-1.74;100.00
46876;BME280;32866;50.160;14.768;2023-02-26T01:07:39;98604.97;;;-1.97;100.00
46876;BME280;32866;50.160;14.768;2023-02-26T01:10:06;98568.34;;;-2.19;100.00
46876;BME280;32866;50.160;14.768;2023-02-26T01:12:32;98614.59;;;-1.92;100.00
46876;BME280;32866;50.160;14.768;2023-02-26T01:14:57;98620.34;;;-1.94;100.00
46876;BME280;32866;50.160;14.768;2023-02-26T01:17:37;98629.84;;;-2.03;100.00
46876;BME280;32866;50.160;14.768;2023-02-26T01:22:43;98627.81;;;-2.17;100.00
46876;BME280;32866;50.160;14.768;2023-02-26T01:25:13;98631.97;;;-2.24;100.00
46876;BME280;32866;50.160;14.768;2023-02-26T01:27:40;98598.47;;;-2.40;100.00
46876;BME280;32866;50.160;14.768;2023-02-26T01:30:07;98625.25;;;-2.48;100.00
46876;BME280;32866;50.160;14.768;2023-02-26T01:32:43;98646.81;;;-2.37;100.00
46876;BME280;32866;50.160;14.768;2023-02-26T01:38:13;98646.47;;;-2.32;100.00
46876;BME280;32866;50.160;14.768;2023-02-26T01:46:21;98652.34;;;-2.19;100.00
46876;BME280;32866;50.160;14.768;2023-02-26T01:48:55;98656.53;;;-2.21;100.00
46876;BME280;32866;50.160;14.768;2023-02-26T01:51:49;98654.19;;;-2.27;100.00
46876;BME280;32866;50.160;14.768;2023-02-26T01:54:18;98663.63;;;-2.40;100.00
46876;BME280;32866;50.160;14.768;2023-02-26T01:56:47;98662.09;;;-2.41;100.00
46876;BME280;32866;50.160;14.768;2023-02-26T01:59:15;98664.56;;;-2.25;100.00
46876;BME280;32866;50.160;14.768;2023-02-26T02:01:44;98630.44;;;-2.62;100.00
46876;BME280;32866;50.160;14.768;2023-02-26T02:04:12;98668.47;;;-2.15;100.00
46876;BME280;32866;50.160;14.768;2023-02-26T02:06:38;98646.09;;;-2.30;100.00
46876;BME280;32866;50.160;14.768;2023-02-26T02:09:05;98676.19;;;-2.10;100.00
46876;BME280;32866;50.160;14.768;2023-02-26T02:11:32;98681.97;;;-2.08;100.00
46876;BME280;32866;50.160;14.768;2023-02-26T02:14:23;98687.81;;;-1.99;100.00
46876;BME280;32866;50.160;14.768;2023-02-26T02:25:50;98700.09;;;-1.98;100.00
46876;BME280;32866;50.160;14.768;2023-02-26T02:31:24;98705.59;;;-2.25;100.00
46876;BME280;32866;50.160;14.768;2023-02-26T02:33:56;98710.66;;;-2.19;100.00
46876;BME280;32866;50.160;14.768;2023-02-26T02:36:48;98709.16;;;-2.13;100.00
46876;BME280;32866;50.160;14.768;2023-02-26T02:39:33;98713.03;;;-2.11;100.00
46876;BME280;32866;50.160;14.768;2023-02-26T02:42:17;98699.41;;;-2.29;100.00
46876;BME280;32866;50.160;14.768;2023-02-26T02:44:49;98699.38;;;-2.32;100.00
46876;BME280;32866;50.160;14.768;2023-02-26T02:47:18;98712.66;;;-2.09;100.00
46876;BME280;32866;50.160;14.768;2023-02-26T02:49:50;98713.75;;;-2.14;100.00
46876;BME280;32866;50.160;14.768;2023-02-26T02:52:25;98728.31;;;-2.15;100.00
46876;BME280;32866;50.160;14.768;2023-02-26T02:58:00;98732.69;;;-2.37;100.00
46876;BME280;32866;50.160;14.768;2023-02-26T03:00:30;98744.50;;;-2.42;100.00
46876;BME280;32866;50.160;14.768;2023-02-26T03:03:25;98746.56;;;-2.31;100.00
46876;BME280;32866;50.160;14.768;2023-02-26T03:05:52;98728.72;;;-2.47;100.00
46876;BME280;32866;50.160;14.768;2023-02-26T03:08:22;98763.41;;;-2.34;100.00
46876;BME280;32866;50.160;14.768;2023-02-26T03:10:48;98743.84;;;-2.65;100.00
46876;BME280;32866;50.160;14.768;2023-02-26T03:13:18;98769.50;;;-2.68;100.00
46876;BME280;32866;50.160;14.768;2023-02-26T03:21:27;98776.34;;;-2.70;100.00
46876;BME280;32866;50.160;14.768;2023-02-26T03:24:04;98782.00;;;-2.79;100.00
46876;BME280;32866;50.160;14.768;2023-02-26T03:26:40;98737.81;;;-3.15;100.00
46876;BME280;32866;50.160;14.768;2023-02-26T03:32:04;98796.59;;;-2.76;100.00
46876;BME280;32866;50.160;14.768;2023-02-26T03:34:38;98749.13;;;-3.03;100.00
46876;BME280;32866;50.160;14.768;2023-02-26T03:37:22;98805.59;;;-2.62;100.00
46876;BME280;32866;50.160;14.768;2023-02-26T03:39:53;98808.84;;;-2.49;100.00
46876;BME280;32866;50.160;14.768;2023-02-26T03:42:27;98772.88;;;-2.74;100.00
46876;BME280;32866;50.160;14.768;2023-02-26T03:45:00;98816.28;;;-2.35;100.00
46876;BME280;32866;50.160;14.768;2023-02-26T03:47:27;98812.22;;;-2.21;100.00
46876;BME280;32866;50.160;14.768;2023-02-26T03:50:15;98819.53;;;-2.22;100.00
46876;BME280;32866;50.160;14.768;2023-02-26T03:52:44;98823.47;;;-2.12;100.00
46876;BME280;32866;50.160;14.768;2023-02-26T03:55:15;98826.50;;;-2.17;100.00
46876;BME280;32866;50.160;14.768;2023-02-26T03:57:41;98802.66;;;-2.22;100.00
46876;BME280;32866;50.160;14.768;2023-02-26T04:00:08;98819.16;;;-2.20;100.00
46876;BME280;32866;50.160;14.768;2023-02-26T04:02:58;98797.81;;;-2.40;100.00
46876;BME280;32866;50.160;14.768;2023-02-26T04:05:28;98835.63;;;-2.22;100.00
46876;BME280;32866;50.160;14.768;2023-02-26T04:07:55;98839.59;;;-2.12;100.00
46876;BME280;32866;50.160;14.768;2023-02-26T04:10:29;98836.56;;;-2.07;100.00
46876;BME280;32866;50.160;14.768;2023-02-26T04:13:00;98792.56;;;-2.33;100.00
46876;BME280;32866;50.160;14.768;2023-02-26T04:15:26;98841.63;;;-2.02;100.00
46876;BME280;32866;50.160;14.768;2023-02-26T04:17:51;98853.41;;;-2.10;100.00
46876;BME280;32866;50.160;14.768;2023-02-26T04:20:17;98831.31;;;-2.30;100.00
46876;BME280;32866;50.160;14.768;2023-02-26T04:22:42;98846.47;;;-2.11;100.00
46876;BME280;32866;50.160;14.768;2023-02-26T04:25:08;98858.03;;;-2.11;100.00
46876;BME280;32866;50.160;14.768;2023-02-26T04:27:34;98858.88;;;-2.03;100.00
46876;BME280;32866;50.160;14.768;2023-02-26T04:29:59;98847.31;;;-2.07;100.00
46876;BME280;32866;50.160;14.768;2023-02-26T04:32:24;98831.47;;;-2.19;100.00
46876;BME280;32866;50.160;14.768;2023-02-26T04:34:50;98861.97;;;-2.01;100.00
46876;BME280;32866;50.160;14.768;2023-02-26T04:37:15;98819.78;;;-2.34;100.00
46876;BME280;32866;50.160;14.768;2023-02-26T04:39:40;98865.00;;;-2.06;100.00
46876;BME280;32866;50.160;14.768;2023-02-26T04:42:06;98822.44;;;-2.34;100.00
46876;BME280;32866;50.160;14.768;2023-02-26T04:44:32;98858.50;;;-2.32;100.00
46876;BME280;32866;50.160;14.768;2023-02-26T04:46:57;98823.09;;;-2.45;100.00
46876;BME280;32866;50.160;14.768;2023-02-26T04:49:22;98837.03;;;-2.32;100.00
46876;BME280;32866;50.160;14.768;2023-02-26T04:51:48;98869.25;;;-2.32;100.00
46876;BME280;32866;50.160;14.768;2023-02-26T04:54:14;98880.81;;;-2.28;100.00
46876;BME280;32866;50.160;14.768;2023-02-26T04:56:39;98878.34;;;-2.40;100.00
46876;BME280;32866;50.160;14.768;2023-02-26T04:59:05;98880.53;;;-2.49;100.00
46876;BME280;32866;50.160;14.768;2023-02-26T05:01:31;98884.66;;;-2.55;100.00
46876;BME280;32866;50.160;14.768;2023-02-26T05:03:56;98878.78;;;-2.65;100.00
46876;BME280;32866;50.160;14.768;2023-02-26T05:06:21;98859.69;;;-2.86;100.00
46876;BME280;32866;50.160;14.768;2023-02-26T05:08:47;98905.72;;;-2.57;100.00
46876;BME280;32866;50.160;14.768;2023-02-26T05:11:12;98867.41;;;-2.81;100.00
46876;BME280;32866;50.160;14.768;2023-02-26T05:13:38;98902.19;;;-2.35;100.00
46876;BME280;32866;50.160;14.768;2023-02-26T05:16:04;98892.06;;;-2.45;100.00
46876;BME280;32866;50.160;14.768;2023-02-26T05:18:30;98868.47;;;-2.63;100.00
46876;BME280;32866;50.160;14.768;2023-02-26T05:20:56;98899.19;;;-2.30;100.00
46876;BME280;32866;50.160;14.768;2023-02-26T05:23:22;98860.97;;;-2.76;100.00
46876;BME280;32866;50.160;14.768;2023-02-26T05:25:47;98907.13;;;-2.64;100.00
46876;BME280;32866;50.160;14.768;2023-02-26T05:28:13;98910.13;;;-2.69;100.00
46876;BME280;32866;50.160;14.768;2023-02-26T05:30:39;98889.59;;;-2.84;100.00
46876;BME280;32866;50.160;14.768;2023-02-26T05:33:04;98920.41;;;-2.74;100.00
46876;BME280;32866;50.160;14.768;2023-02-26T05:35:30;98919.03;;;-2.65;100.00
46876;BME280;32866;50.160;14.768;2023-02-26T05:37:55;98883.53;;;-3.04;100.00
46876;BME280;32866;50.160;14.768;2023-02-26T05:40:21;98915.47;;;-2.95;100.00
46876;BME280;32866;50.160;14.768;2023-02-26T05:42:47;98934.06;;;-2.83;100.00
46876;BME280;32866;50.160;14.768;2023-02-26T05:45:12;98907.31;;;-3.03;100.00
46876;BME280;32866;50.160;14.768;2023-02-26T05:47:38;98946.94;;;-2.69;100.00
46876;BME280;32866;50.160;14.768;2023-02-26T05:50:04;98925.19;;;-2.87;100.00
46876;BME280;32866;50.160;14.768;2023-02-26T05:52:30;98949.09;;;-2.52;100.00
46876;BME280;32866;50.160;14.768;2023-02-26T05:54:55;98945.72;;;-2.72;100.00
46876;BME280;32866;50.160;14.768;2023-02-26T05:57:21;98969.50;;;-2.47;100.00
46876;BME280;32866;50.160;14.768;2023-02-26T05:59:47;98979.72;;;-2.30;100.00
46876;BME280;32866;50.160;14.768;2023-02-26T06:02:12;98963.31;;;-2.51;100.00
46876;BME280;32866;50.160;14.768;2023-02-26T06:04:38;98953.28;;;-2.54;100.00
46876;BME280;32866;50.160;14.768;2023-02-26T06:07:03;98993.97;;;-2.26;100.00
46876;BME280;32866;50.160;14.768;2023-02-26T06:09:28;98984.59;;;-2.12;100.00
46876;BME280;32866;50.160;14.768;2023-02-26T06:11:54;98963.38;;;-2.48;100.00
46876;BME280;32866;50.160;14.768;2023-02-26T06:14:19;98951.53;;;-2.43;100.00
46876;BME280;32866;50.160;14.768;2023-02-26T06:16:44;99010.41;;;-2.04;100.00
46876;BME280;32866;50.160;14.768;2023-02-26T06:19:10;98993.03;;;-2.10;100.00
46876;BME280;32866;50.160;14.768;2023-02-26T06:21:35;99011.94;;;-2.03;100.00
46876;BME280;32866;50.160;14.768;2023-02-26T06:24:01;99004.75;;;-1.95;100.00
46876;BME280;32866;50.160;14.768;2023-02-26T06:26:26;98979.78;;;-2.26;100.00
46876;BME280;32866;50.160;14.768;2023-02-26T06:28:51;99018.47;;;-2.04;100.00
46876;BME280;32866;50.160;14.768;2023-02-26T06:31:17;99037.25;;;-1.77;100.00
46876;BME280;32866;50.160;14.768;2023-02-26T06:33:42;99035.59;;;-1.85;100.00
46876;BME280;32866;50.160;14.768;2023-02-26T06:36:07;99031.88;;;-1.77;100.00
46876;BME280;32866;50.160;14.768;2023-02-26T06:38:33;99038.22;;;-1.62;100.00
46876;BME280;32866;50.160;14.768;2023-02-26T06:40:58;99043.91;;;-1.37;100.00
46876;BME280;32866;50.160;14.768;2023-02-26T06:43:24;99037.94;;;-1.54;100.00
46876;BME280;32866;50.160;14.768;2023-02-26T06:45:49;99052.88;;;-1.26;100.00
46876;BME280;32866;50.160;14.768;2023-02-26T06:48:15;99030.03;;;-1.39;100.00
46876;BME280;32866;50.160;14.768;2023-02-26T06:50:40;99032.41;;;-1.34;100.00
46876;BME280;32866;50.160;14.768;2023-02-26T06:53:06;99072.53;;;-1.22;100.00
46876;BME280;32866;50.160;14.768;2023-02-26T06:55:31;99063.41;;;-1.14;100.00
46876;BME280;32866;50.160;14.768;2023-02-26T06:57:57;99086.88;;;-1.10;100.00
46876;BME280;32866;50.160;14.768;2023-02-26T07:00:23;99082.25;;;-1.10;100.00
46876;BME280;32866;50.160;14.768;2023-02-26T07:02:49;99053.91;;;-1.34;100.00
46876;BME280;32866;50.160;14.768;2023-02-26T07:05:15;99092.25;;;-1.10;100.00
46876;BME280;32866;50.160;14.768;2023-02-26T07:07:41;99102.38;;;-1.00;100.00
46876;BME280;32866;50.160;14.768;2023-02-26T07:10:08;99101.63;;;-0.97;100.00
46876;BME280;32866;50.160;14.768;2023-02-26T07:12:33;99108.84;;;-1.05;100.00
46876;BME280;32866;50.160;14.768;2023-02-26T07:14:59;99095.78;;;-1.03;100.00
46876;BME280;32866;50.160;14.768;2023-02-26T07:17:24;99123.31;;;-0.83;100.00
46876;BME280;32866;50.160;14.768;2023-02-26T07:19:51;99129.34;;;-0.59;100.00
46876;BME280;32866;50.160;14.768;2023-02-26T07:22:18;99128.81;;;-0.72;100.00
46876;BME280;32866;50.160;14.768;2023-02-26T07:24:44;99101.78;;;-0.83;100.00
46876;BME280;32866;50.160;14.768;2023-02-26T07:27:10;99107.00;;;-0.63;100.00
46876;BME280;32866;50.160;14.768;2023-02-26T07:29:36;99143.59;;;-0.17;100.00
46876;BME280;32866;50.160;14.768;2023-02-26T07:32:02;99152.97;;;-0.01;100.00
46876;BME280;32866;50.160;14.768;2023-02-26T07:34:28;99127.28;;;-0.32;100.00
46876;BME280;32866;50.160;14.768;2023-02-26T07:36:53;99145.03;;;0.17;100.00
46876;BME280;32866;50.160;14.768;2023-02-26T07:39:19;99162.06;;;0.29;100.00
46876;BME280;32866;50.160;14.768;2023-02-26T07:41:44;99150.44;;;0.17;100.00
46876;BME280;32866;50.160;14.768;2023-02-26T07:44:10;99157.06;;;0.27;100.00
46876;BME280;32866;50.160;14.768;2023-02-26T07:46:35;99170.47;;;0.20;100.00
46876;BME280;32866;50.160;14.768;2023-02-26T07:49:01;99181.53;;;0.08;100.00
46876;BME280;32866;50.160;14.768;2023-02-26T07:51:26;99183.63;;;0.25;100.00
46876;BME280;32866;50.160;14.768;2023-02-26T07:53:51;99187.75;;;0.12;100.00
46876;BME280;32866;50.160;14.768;2023-02-26T07:56:17;99170.25;;;-0.05;100.00
46876;BME280;32866;50.160;14.768;2023-02-26T07:58:42;99171.56;;;0.12;100.00
46876;BME280;32866;50.160;14.768;2023-02-26T08:01:08;99186.88;;;0.49;100.00
46876;BME280;32866;50.160;14.768;2023-02-26T08:03:33;99182.66;;;0.55;100.00
46876;BME280;32866;50.160;14.768;2023-02-26T08:05:58;99190.50;;;0.74;100.00
46876;BME280;32866;50.160;14.768;2023-02-26T08:08:25;99201.16;;;0.53;100.00
46876;BME280;32866;50.160;14.768;2023-02-26T08:10:50;99190.31;;;0.46;100.00
46876;BME280;32866;50.160;14.768;2023-02-26T08:13:16;99218.22;;;0.23;100.00
46876;BME280;32866;50.160;14.768;2023-02-26T08:15:41;99226.06;;;0.35;100.00
46876;BME280;32866;50.160;14.768;2023-02-26T08:18:08;99222.19;;;0.88;100.00
46876;BME280;32866;50.160;14.768;2023-02-26T08:20:33;99219.00;;;0.72;100.00
46876;BME280;32866;50.160;14.768;2023-02-26T08:22:58;99233.41;;;0.94;100.00
46876;BME280;32866;50.160;14.768;2023-02-26T08:25:24;99225.31;;;0.94;100.00
46876;BME280;32866;50.160;14.768;2023-02-26T08:27:49;99236.53;;;1.03;100.00
46876;BME280;32866;50.160;14.768;2023-02-26T08:30:14;99226.81;;;0.88;100.00
46876;BME280;32866;50.160;14.768;2023-02-26T08:32:40;99236.91;;;0.98;100.00
46876;BME280;32866;50.160;14.768;2023-02-26T08:35:06;99232.41;;;1.24;100.00
46876;BME280;32866;50.160;14.768;2023-02-26T08:37:32;99234.78;;;1.36;100.00
46876;BME280;32866;50.160;14.768;2023-02-26T08:39:57;99237.22;;;1.59;100.00
46876;BME280;32866;50.160;14.768;2023-02-26T08:42:22;99246.59;;;2.01;100.00
46876;BME280;32866;50.160;14.768;2023-02-26T08:44:48;99229.56;;;1.83;100.00
46876;BME280;32866;50.160;14.768;2023-02-26T08:47:13;99247.94;;;1.41;100.00
46876;BME280;32866;50.160;14.768;2023-02-26T08:49:39;99223.41;;;0.43;100.00
46876;BME280;32866;50.160;14.768;2023-02-26T08:52:04;99221.38;;;0.81;100.00
46876;BME280;32866;50.160;14.768;2023-02-26T08:54:30;99261.56;;;1.81;100.00
46876;BME280;32866;50.160;14.768;2023-02-26T08:56:56;99233.47;;;2.36;100.00
46876;BME280;32866;50.160;14.768;2023-02-26T08:59:25;99277.03;;;3.53;100.00
46876;BME280;32866;50.160;14.768;2023-02-26T09:01:51;99263.59;;;4.13;100.00
46876;BME280;32866;50.160;14.768;2023-02-26T09:04:17;99264.84;;;3.90;100.00
46876;BME280;32866;50.160;14.768;2023-02-26T09:06:42;99273.47;;;3.67;100.00
46876;BME280;32866;50.160;14.768;2023-02-26T09:09:08;99272.72;;;3.66;100.00
46876;BME280;32866;50.160;14.768;2023-02-26T09:11:34;99272.34;;;3.64;100.00
46876;BME280;32866;50.160;14.768;2023-02-26T09:14:01;99272.22;;;3.89;100.00
46876;BME280;32866;50.160;14.768;2023-02-26T09:16:27;99285.53;;;4.36;100.00
46876;BME280;32866;50.160;14.768;2023-02-26T09:18:53;99280.34;;;3.89;100.00
46876;BME280;32866;50.160;14.768;2023-02-26T09:21:19;99255.88;;;2.94;100.00
46876;BME280;32866;50.160;14.768;2023-02-26T09:23:44;99274.44;;;2.31;100.00
46876;BME280;32866;50.160;14.768;2023-02-26T09:26:09;99276.25;;;1.83;100.00
46876;BME280;32866;50.160;14.768;2023-02-26T09:28:35;99259.94;;;1.47;100.00
46876;BME280;32866;50.160;14.768;2023-02-26T09:31:00;99276.56;;;1.64;100.00
46876;BME280;32866;50.160;14.768;2023-02-26T09:33:25;99293.28;;;1.95;100.00
46876;BME280;32866;50.160;14.768;2023-02-26T09:35:51;99291.38;;;1.99;100.00
46876;BME280;32866;50.160;14.768;2023-02-26T09:38:18;99308.38;;;2.03;100.00
46876;BME280;32866;50.160;14.768;2023-02-26T09:40:57;99285.44;;;1.61;100.00
46876;BME280;32866;50.160;14.768;2023-02-26T09:55:08;99326.78;;;4.02;100.00
46876;BME280;32866;50.160;14.768;2023-02-26T09:57:41;99329.09;;;4.07;100.00
46876;BME280;32866;50.160;14.768;2023-02-26T10:06:10;99347.22;;;4.85;100.00
46876;BME280;32866;50.160;14.768;2023-02-26T10:08:48;99306.41;;;3.65;100.00
46876;BME280;32866;50.160;14.768;2023-02-26T10:11:30;99336.25;;;3.55;100.00
46876;BME280;32866;50.160;14.768;2023-02-26T10:14:09;99344.81;;;3.21;100.00
46876;BME280;32866;50.160;14.768;2023-02-26T10:16:40;99343.88;;;3.85;100.00
46876;BME280;32866;50.160;14.768;2023-02-26T10:19:10;99344.03;;;3.27;100.00
46876;BME280;32866;50.160;14.768;2023-02-26T10:21:43;99342.13;;;3.21;100.00
46876;BME280;32866;50.160;14.768;2023-02-26T10:24:31;99346.00;;;2.87;100.00
46876;BME280;32866;50.160;14.768;2023-02-26T10:27:08;99357.59;;;3.20;100.00
46876;BME280;32866;50.160;14.768;2023-02-26T10:32:27;99363.47;;;5.75;100.00
46876;BME280;32866;50.160;14.768;2023-02-26T10:34:57;99359.78;;;3.83;100.00
46876;BME280;32866;50.160;14.768;2023-02-26T10:37:57;99372.69;;;3.18;100.00
46876;BME280;32866;50.160;14.768;2023-02-26T10:40:27;99371.88;;;2.70;100.00
46876;BME280;32866;50.160;14.768;2023-02-26T10:45:56;99387.81;;;1.80;100.00
46876;BME280;32866;50.160;14.768;2023-02-26T10:48:43;99385.50;;;1.82;100.00
46876;BME280;32866;50.160;14.768;2023-02-26T10:51:13;99395.66;;;2.07;100.00
46876;BME280;32866;50.160;14.768;2023-02-26T10:53:43;99383.84;;;2.66;100.00
46876;BME280;32866;50.160;14.768;2023-02-26T10:56:15;99375.38;;;4.45;100.00
46876;BME280;32866;50.160;14.768;2023-02-26T10:58:41;99380.16;;;4.20;100.00
46876;BME280;32866;50.160;14.768;2023-02-26T11:01:16;99361.81;;;3.28;100.00
46876;BME280;32866;50.160;14.768;2023-02-26T11:03:45;99382.75;;;2.88;100.00
46876;BME280;32866;50.160;14.768;2023-02-26T11:06:21;99390.88;;;3.17;100.00
46876;BME280;32866;50.160;14.768;2023-02-26T11:08:51;99384.25;;;3.36;100.00
46876;BME280;32866;50.160;14.768;2023-02-26T11:11:40;99402.84;;;2.87;100.00
46876;BME280;32866;50.160;14.768;2023-02-26T11:14:06;99393.47;;;2.45;100.00
46876;BME280;32866;50.160;14.768;2023-02-26T11:16:33;99388.13;;;2.70;100.00
46876;BME280;32866;50.160;14.768;2023-02-26T11:18:59;99402.84;;;2.94;100.00
46876;BME280;32866;50.160;14.768;2023-02-26T11:21:33;99396.28;;;3.17;100.00
46876;BME280;32866;50.160;14.768;2023-02-26T11:26:53;99402.06;;;3.05;100.00
46876;BME280;32866;50.160;14.768;2023-02-26T11:29:21;99398.94;;;2.81;100.00
46876;BME280;32866;50.160;14.768;2023-02-26T11:31:49;99397.00;;;2.78;100.00
46876;BME280;32866;50.160;14.768;2023-02-26T11:34:21;99384.63;;;2.63;100.00
46876;BME280;32866;50.160;14.768;2023-02-26T11:36:48;99402.06;;;3.08;100.00
46876;BME280;32866;50.160;14.768;2023-02-26T11:39:33;99405.94;;;3.18;100.00
46876;BME280;32866;50.160;14.768;2023-02-26T11:42:00;99407.47;;;2.87;100.00
46876;BME280;32866;50.160;14.768;2023-02-26T11:44:34;99412.06;;;2.65;100.00
46876;BME280;32866;50.160;14.768;2023-02-26T11:47:10;99398.69;;;1.95;100.00
46876;BME280;32866;50.160;14.768;2023-02-26T11:49:44;99421.81;;;1.89;100.00
46876;BME280;32866;50.160;14.768;2023-02-26T11:54:37;99422.53;;;1.78;100.00
46876;BME280;32866;50.160;14.768;2023-02-26T11:57:23;99413.81;;;1.44;100.00
46876;BME280;32866;50.160;14.768;2023-02-26T11:59:51;99406.91;;;1.46;100.00
46876;BME280;32866;50.160;14.768;2023-02-26T12:02:20;99423.97;;;1.58;100.00
46876;BME280;32866;50.160;14.768;2023-02-26T12:04:48;99429.06;;;1.74;100.00
46876;BME280;32866;50.160;14.768;2023-02-26T12:07:17;99410.59;;;1.79;100.00
46876;BME280;32866;50.160;14.768;2023-02-26T12:09:42;99426.47;;;1.92;100.00
46876;BME280;32866;50.160;14.768;2023-02-26T12:15:10;99421.94;;;2.14;100.00
46876;BME280;32866;50.160;14.768;2023-02-26T12:20:28;99425.97;;;2.59;100.00
46876;BME280;32866;50.160;14.768;2023-02-26T12:42:52;99440.22;;;2.35;100.00
46876;BME280;32866;50.160;14.768;2023-02-26T13:18:35;99460.88;;;3.15;100.00
46876;BME280;32866;50.160;14.768;2023-02-26T13:21:06;99474.34;;;4.16;100.00
46876;BME280;32866;50.160;14.768;2023-02-26T13:23:41;99470.53;;;4.87;100.00
46876;BME280;32866;50.160;14.768;2023-02-26T13:26:10;99454.50;;;6.97;100.00
46876;BME280;32866;50.160;14.768;2023-02-26T13:28:47;99464.34;;;6.60;98.14
46876;BME280;32866;50.160;14.768;2023-02-26T13:31:22;99454.25;;;5.39;100.00
46876;BME280;32866;50.160;14.768;2023-02-26T13:33:50;99471.25;;;4.21;100.00
46876;BME280;32866;50.160;14.768;2023-02-26T13:36:19;99457.78;;;3.13;100.00
46876;BME280;32866;50.160;14.768;2023-02-26T13:47:53;99470.91;;;2.89;100.00
46876;BME280;32866;50.160;14.768;2023-02-26T13:50:35;99469.00;;;2.93;100.00
46876;BME280;32866;50.160;14.768;2023-02-26T13:53:04;99476.69;;;4.06;100.00
46876;BME280;32866;50.160;14.768;2023-02-26T13:55:52;99464.72;;;3.86;100.00
46876;BME280;32866;50.160;14.768;2023-02-26T14:00:56;99482.53;;;3.01;100.00
46876;BME280;32866;50.160;14.768;2023-02-26T14:05:54;99464.66;;;2.78;100.00
46876;BME280;32866;50.160;14.768;2023-02-26T14:08:41;99480.97;;;3.03;100.00
46876;BME280;32866;50.160;14.768;2023-02-26T14:13:42;99487.22;;;3.25;100.00
46876;BME280;32866;50.160;14.768;2023-02-26T14:16:27;99488.28;;;4.18;100.00
46876;BME280;32866;50.160;14.768;2023-02-26T14:19:16;99486.44;;;3.43;100.00
46876;BME280;32866;50.160;14.768;2023-02-26T14:21:50;99477.88;;;2.97;100.00
46876;BME280;32866;50.160;14.768;2023-02-26T14:24:21;99483.31;;;3.19;100.00
46876;BME280;32866;50.160;14.768;2023-02-26T14:26:50;99486.44;;;3.32;100.00
46876;BME280;32866;50.160;14.768;2023-02-26T14:29:41;99489.47;;;2.94;100.00
46876;BME280;32866;50.160;14.768;2023-02-26T14:35:23;99492.66;;;2.19;100.00
46876;BME280;32866;50.160;14.768;2023-02-26T14:37:25;99494.53;;;2.08;100.00
46876;BME280;32866;50.160;14.768;2023-02-26T14:39:58;99493.94;;;2.36;100.00
46876;BME280;32866;50.160;14.768;2023-02-26T14:42:36;99471.56;;;2.50;100.00
46876;BME280;32866;50.160;14.768;2023-02-26T14:45:12;99501.72;;;2.59;100.00
46876;BME280;32866;50.160;14.768;2023-02-26T14:47:46;99494.72;;;2.51;100.00
46876;BME280;32866;50.160;14.768;2023-02-26T14:50:22;99495.91;;;2.50;100.00
46876;BME280;32866;50.160;14.768;2023-02-26T14:56:01;99517.81;;;2.23;100.00
46876;BME280;32866;50.160;14.768;2023-02-26T15:04:19;99513.13;;;3.12;100.00
46876;BME280;32866;50.160;14.768;2023-02-26T15:07:02;99518.09;;;2.88;99.04
46876;BME280;32866;50.160;14.768;2023-02-26T15:09:48;99527.03;;;3.14;98.82
46876;BME280;32866;50.160;14.768;2023-02-26T15:12:40;99518.88;;;3.00;96.71
46876;BME280;32866;50.160;14.768;2023-02-26T15:18:13;99542.91;;;3.19;93.37
46876;BME280;32866;50.160;14.768;2023-02-26T15:20:59;99545.53;;;2.90;94.85
46876;BME280;32866;50.160;14.768;2023-02-26T15:23:48;99511.84;;;2.77;94.81
46876;BME280;32866;50.160;14.768;2023-02-26T15:26:20;99550.50;;;2.77;97.46
46876;BME280;32866;50.160;14.768;2023-02-26T15:28:48;99545.22;;;2.26;100.00
46876;BME280;32866;50.160;14.768;2023-02-26T15:31:15;99527.63;;;1.91;100.00
46876;BME280;32866;50.160;14.768;2023-02-26T15:33:42;99520.56;;;1.75;100.00
46876;BME280;32866;50.160;14.768;2023-02-26T15:36:14;99563.00;;;1.71;100.00
46876;BME280;32866;50.160;14.768;2023-02-26T15:38:44;99563.28;;;1.59;100.00
46876;BME280;32866;50.160;14.768;2023-02-26T15:41:10;99572.75;;;1.38;100.00